createdAt,value
2023-03-06T00:03:55.325Z,8.50
2023-03-06T00:07:58.487Z,8.50
2023-03-06T00:12:01.175Z,8.40
2023-03-06T00:16:04.955Z,8.30
2023-03-06T00:20:08.448Z,8.20
2023-03-06T00:24:11.064Z,8.10
2023-03-06T00:28:15.753Z,8.00
2023-03-06T00:32:18.668Z,7.90
2023-03-06T00:36:21.511Z,7.90
2023-03-06T00:40:24.191Z,7.90
2023-03-06T00:44:26.793Z,7.80
2023-03-06T00:48:29.757Z,7.70
2023-03-06T00:52:32.679Z,7.60
2023-03-06T00:56:36.195Z,7.50
2023-03-06T01:00:39.035Z,7.60
2023-03-06T01:04:44.015Z,7.60
2023-03-06T01:08:47.161Z,7.60
2023-03-06T01:12:50.157Z,7.70
2023-03-06T01:16:54.759Z,7.70
2023-03-06T01:20:57.862Z,7.80
2023-03-06T01:25:00.875Z,8.00
2023-03-06T01:29:03.614Z,7.90
2023-03-06T01:33:06.343Z,8.00
2023-03-06T01:37:09.838Z,8.00
2023-03-06T01:41:16.117Z,8.00
2023-03-06T01:45:18.744Z,8.00
2023-03-06T01:49:24.116Z,8.00
2023-03-06T01:53:26.847Z,8.00
2023-03-06T01:57:38.398Z,8.00
2023-03-06T02:01:42.220Z,8.00
2023-03-06T02:05:45.422Z,8.10
2023-03-06T02:09:48.330Z,8.10
2023-03-06T02:13:52.811Z,8.20
2023-03-06T02:17:55.614Z,8.30
2023-03-06T02:21:59.637Z,8.30
2023-03-06T02:26:02.880Z,8.40
2023-03-06T02:30:09.248Z,8.40
2023-03-06T02:34:15.843Z,8.50
2023-03-06T02:38:20.139Z,8.50
2023-03-06T02:42:25.172Z,8.00
2023-03-06T02:46:29.797Z,7.50
2023-03-06T02:50:32.596Z,7.10
2023-03-06T02:54:36.864Z,7.00
2023-03-06T02:58:39.509Z,6.90
2023-03-06T03:02:42.293Z,6.70
2023-03-06T03:06:45.126Z,6.50
2023-03-06T03:10:48.277Z,6.30
2023-03-06T03:14:51.011Z,6.20
2023-03-06T03:18:53.715Z,6.20
2023-03-06T03:22:58.702Z,6.30
2023-03-06T03:27:02.581Z,6.20
2023-03-06T03:31:06.762Z,6.00
2023-03-06T03:35:11.809Z,6.00
2023-03-06T03:39:14.913Z,5.80
2023-03-06T03:43:18.687Z,5.80
2023-03-06T03:47:22.164Z,5.80
2023-03-06T03:51:25.036Z,5.80
2023-03-06T03:55:30.084Z,5.80
2023-03-06T03:59:33.204Z,5.70
2023-03-06T04:03:43.809Z,5.80
2023-03-06T04:07:47.865Z,5.90
2023-03-06T04:11:51.365Z,6.00
2023-03-06T04:15:55.118Z,6.00
2023-03-06T04:19:59.504Z,6.00
2023-03-06T04:24:03.517Z,6.00
2023-03-06T04:28:06.721Z,6.00
2023-03-06T04:32:10.500Z,6.00
2023-03-06T04:36:22.405Z,6.00
2023-03-06T04:40:29.649Z,6.00
2023-03-06T04:44:33.170Z,5.90
2023-03-06T04:48:36.474Z,5.90
2023-03-06T04:52:40.593Z,5.90
2023-03-06T04:56:43.254Z,6.00
2023-03-06T05:00:45.867Z,6.10
2023-03-06T05:04:48.576Z,6.00
2023-03-06T05:08:51.258Z,6.00
2023-03-06T05:12:53.896Z,5.90
2023-03-06T05:16:56.776Z,6.00
2023-03-06T05:21:00.012Z,6.00
2023-03-06T05:25:07.100Z,6.10
2023-03-06T05:29:10.121Z,6.20
2023-03-06T05:33:12.957Z,6.10
2023-03-06T05:37:17.345Z,6.00
2023-03-06T05:41:20.572Z,6.00
2023-03-06T05:45:23.435Z,6.00
2023-03-06T05:49:26.413Z,6.10
2023-03-06T05:53:29.512Z,6.10
2023-03-06T05:57:32.303Z,6.00
2023-03-06T06:21:54.237Z,6.30
2023-03-06T06:25:59.316Z,6.40
2023-03-06T06:30:02.241Z,6.30
2023-03-06T06:34:05.194Z,6.30
2023-03-06T06:38:07.929Z,6.40
2023-03-06T06:42:30.205Z,6.50
2023-03-06T06:47:19.279Z,6.60
2023-03-06T06:50:56.567Z,6.60
2023-03-06T06:54:59.362Z,6.80
2023-03-06T06:59:16.221Z,6.90
2023-03-06T07:03:19.814Z,7.00
2023-03-06T07:07:24.740Z,7.10
2023-03-06T07:11:28.174Z,7.20
2023-03-06T07:15:30.943Z,7.30
2023-03-06T07:19:33.807Z,7.40
2023-03-06T07:23:36.582Z,7.60
2023-03-06T07:27:39.204Z,7.70
2023-03-06T07:31:42.139Z,7.60
2023-03-06T07:35:45.056Z,7.70
2023-03-06T07:39:48.187Z,8.00
2023-03-06T07:43:50.909Z,8.50
2023-03-06T07:47:54.286Z,8.80
2023-03-06T07:51:56.970Z,9.10
2023-03-06T07:55:59.678Z,9.30
2023-03-06T08:00:02.686Z,9.60
2023-03-06T08:04:15.818Z,9.70
2023-03-06T08:08:18.399Z,10.00
2023-03-06T08:12:21.090Z,10.20
2023-03-06T08:16:25.468Z,10.30
2023-03-06T08:20:28.297Z,10.50
2023-03-06T08:24:31.179Z,10.70
2023-03-06T08:28:34.065Z,10.80
2023-03-06T08:32:37.255Z,11.00
2023-03-06T08:36:40.285Z,11.10
2023-03-06T08:40:43.112Z,11.10
2023-03-06T08:44:46.492Z,11.10
2023-03-06T08:48:49.085Z,11.20
2023-03-06T08:52:51.678Z,11.20
2023-03-06T08:56:54.492Z,11.40
2023-03-06T09:00:57.137Z,11.70
2023-03-06T09:05:01.337Z,12.10
2023-03-06T09:09:04.438Z,12.30
2023-03-06T09:13:07.379Z,12.40
2023-03-06T09:17:10.170Z,12.60
2023-03-06T09:21:12.994Z,12.60
2023-03-06T09:25:20.350Z,12.80
2023-03-06T09:29:23.008Z,12.70
2023-03-06T09:33:25.758Z,12.80
2023-03-06T09:37:28.418Z,13.10
2023-03-06T09:41:33.584Z,13.20
2023-03-06T09:45:37.194Z,13.50
2023-03-06T09:49:51.982Z,13.50
2023-03-06T09:53:59.048Z,13.70
2023-03-06T09:58:01.819Z,14.00
2023-03-06T10:02:16.063Z,14.00
2023-03-06T10:06:27.611Z,14.00
2023-03-06T10:10:40.911Z,14.10
2023-03-06T10:14:47.064Z,14.10
2023-03-06T10:18:51.341Z,14.40
2023-03-06T10:23:12.905Z,14.50
2023-03-06T10:27:23.800Z,14.50
2023-03-06T10:31:27.471Z,14.60
2023-03-06T10:35:39.909Z,14.80
2023-03-06T10:39:42.545Z,15.10
2023-03-06T10:44:05.239Z,15.50
2023-03-06T10:48:14.386Z,15.70
2023-03-06T10:52:17.044Z,15.60
2023-03-06T10:56:38.475Z,15.70
2023-03-06T11:00:41.273Z,15.60
2023-03-06T11:04:47.142Z,15.60
2023-03-06T11:08:50.237Z,15.80
2023-03-06T11:13:04.647Z,15.90
2023-03-06T11:17:26.268Z,15.70
2023-03-06T11:21:31.292Z,15.30
2023-03-06T11:25:40.473Z,15.20
2023-03-06T11:29:45.739Z,15.20
2023-03-06T11:33:51.494Z,15.10
2023-03-06T11:38:07.088Z,15.10
2023-03-06T11:42:17.000Z,15.10
2023-03-06T11:46:25.707Z,15.20
2023-03-06T11:50:34.722Z,15.30
2023-03-06T11:54:37.450Z,15.30
2023-03-06T11:59:00.308Z,15.40
2023-03-06T12:03:21.872Z,15.50
2023-03-06T12:07:27.642Z,15.50
2023-03-06T12:11:48.935Z,15.50
2023-03-06T12:16:01.385Z,15.50
2023-03-06T12:20:22.924Z,15.50
2023-03-06T12:24:25.865Z,15.50
2023-03-06T12:28:39.478Z,15.50
2023-03-06T12:33:03.374Z,15.30
2023-03-06T12:37:32.680Z,15.30
2023-03-06T12:41:42.999Z,15.30
2023-03-06T12:45:46.521Z,15.40
2023-03-06T12:49:53.323Z,15.50
2023-03-06T12:53:57.947Z,15.50
2023-03-06T12:58:20.830Z,15.50
2023-03-06T13:02:35.504Z,15.40
2023-03-06T13:06:49.721Z,15.40
2023-03-06T13:11:11.771Z,15.50
2023-03-06T13:15:20.480Z,15.60
2023-03-06T13:19:25.937Z,15.60
2023-03-06T13:23:31.822Z,15.50
2023-03-06T13:27:59.567Z,15.50
2023-03-06T13:32:02.285Z,15.90
2023-03-06T13:36:22.429Z,16.20
2023-03-06T13:40:30.276Z,16.50
2023-03-06T13:44:38.937Z,16.60
2023-03-06T13:48:45.571Z,16.70
2023-03-06T13:53:04.157Z,16.50
2023-03-06T13:57:19.600Z,16.60
2023-03-06T14:01:42.653Z,16.90
2023-03-06T14:05:46.872Z,17.00
2023-03-06T14:09:58.389Z,16.90
2023-03-06T14:14:01.012Z,16.70
2023-03-06T14:18:05.216Z,16.60
2023-03-06T14:22:13.945Z,16.60
2023-03-06T14:26:17.604Z,16.50
2023-03-06T14:30:21.998Z,16.40
2023-03-06T14:34:37.276Z,16.30
2023-03-06T14:38:44.033Z,16.00
2023-03-06T14:42:46.721Z,15.70
2023-03-06T14:46:50.299Z,15.30
2023-03-06T14:50:54.227Z,15.10
2023-03-06T14:54:56.918Z,14.90
2023-03-06T14:59:00.878Z,14.60
2023-03-06T15:03:08.640Z,14.30
2023-03-06T15:07:13.459Z,14.00
2023-03-06T15:11:16.459Z,13.80
2023-03-06T15:20:00.516Z,13.40
2023-03-06T15:24:23.038Z,13.40
2023-03-06T15:28:30.624Z,13.50
2023-03-06T15:32:34.884Z,13.60
2023-03-06T15:36:48.302Z,13.60
2023-03-06T15:40:57.211Z,13.30
2023-03-06T15:45:12.898Z,13.10
2023-03-06T15:49:17.268Z,13.00
2023-03-06T15:53:20.509Z,12.80
2023-03-06T15:57:29.003Z,12.60
2023-03-06T16:01:32.416Z,12.60
2023-03-06T16:05:35.188Z,12.70
2023-03-06T16:09:41.678Z,12.80
2023-03-06T16:13:44.804Z,12.80
2023-03-06T16:17:47.442Z,12.60
2023-03-06T16:21:50.030Z,12.60
2023-03-06T16:25:52.780Z,12.80
2023-03-06T16:29:55.528Z,12.70
2023-03-06T16:33:58.115Z,12.60
2023-03-06T16:38:00.642Z,12.50
2023-03-06T16:42:03.162Z,12.30
2023-03-06T16:46:06.672Z,12.10
2023-03-06T16:50:26.666Z,12.00
2023-03-06T16:54:29.222Z,11.90
2023-03-06T16:58:32.045Z,11.70
2023-03-06T17:02:35.052Z,11.50
2023-03-06T17:06:38.094Z,11.40
2023-03-06T17:10:41.312Z,11.30
2023-03-06T17:14:44.637Z,11.20
2023-03-06T17:18:47.497Z,11.10
2023-03-06T17:22:52.927Z,11.10
2023-03-06T17:26:55.477Z,11.00
2023-03-06T17:30:58.106Z,11.00
2023-03-06T17:35:01.017Z,10.90
2023-03-06T17:39:05.179Z,10.90
2023-03-06T17:43:07.983Z,10.80
2023-03-06T17:47:10.704Z,10.80
2023-03-06T17:51:13.344Z,10.80
2023-03-06T17:55:18.241Z,10.80
2023-03-06T17:59:21.042Z,10.80
2023-03-06T18:03:23.587Z,10.80
2023-03-06T18:07:26.706Z,10.80
2023-03-06T18:11:29.586Z,10.70
2023-03-06T18:15:32.303Z,10.60
2023-03-06T18:19:34.928Z,10.60
2023-03-06T18:23:38.269Z,10.60
2023-03-06T18:27:40.853Z,10.60
2023-03-06T18:31:44.009Z,10.60
2023-03-06T18:35:46.683Z,10.60
2023-03-06T18:39:49.622Z,10.60
2023-03-06T18:43:53.216Z,10.60
2023-03-06T18:47:55.797Z,10.60
2023-03-06T18:51:58.390Z,10.60
2023-03-06T18:56:00.965Z,10.60
2023-03-06T19:00:05.979Z,10.50
2023-03-06T19:04:08.733Z,10.60
2023-03-06T19:08:12.198Z,10.60
2023-03-06T19:12:15.713Z,10.60
2023-03-06T19:16:22.249Z,10.70
2023-03-06T19:20:25.758Z,10.70
2023-03-06T19:24:28.375Z,10.80
2023-03-06T19:28:31.016Z,10.80
2023-03-06T19:32:33.696Z,10.80
2023-03-06T19:36:38.520Z,10.80
2023-03-06T19:40:41.308Z,10.70
2023-03-06T19:44:43.891Z,10.70
2023-03-06T19:48:47.136Z,10.70
2023-03-06T19:52:49.848Z,10.70
2023-03-06T19:56:52.620Z,10.70
2023-03-06T20:01:02.269Z,10.70
2023-03-06T20:05:09.181Z,10.60
2023-03-06T20:09:12.100Z,10.50
2023-03-06T20:13:14.968Z,10.50
2023-03-06T20:17:17.770Z,10.50
2023-03-06T20:21:21.586Z,10.40
2023-03-06T20:25:24.306Z,10.40
2023-03-06T20:29:30.780Z,10.30
2023-03-06T21:17:14.946Z,9.70
2023-03-06T23:14:40.244Z,9.00
